Greeneville, Tennessee
Current Conditions -  °F | °C
As of 4:35 PM on Friday 19 Dec 2014 (Local Time) from KMOR Reporting Station
Clear Clear  
Wind Chill: 42°   Ceiling: Unl
Heat Index: 45°   Visibility: 10mi
Dew Point: 25°   Wind: 5mph
Humidity: 46%   Direction: 340°NNW
Pressure: 30.17"   Gusts: NA
Location:  36.16°N, 82.83°W
Report Text: KMOR 192135Z AUTO 34004KT 10SM CLR 07/M04 A3017 RMK
Loading
Personal Weather Stations






























Interactive Weather Map New forecast layout! Learn more

10-Day Weather Forecast

Advertisements
Track Severe Weather on mobile